createdAt,value
2022-08-25T00:01:02.903Z,97.14
2022-08-25T00:03:04.996Z,97.25
2022-08-25T00:05:08.176Z,97.58
2022-08-25T00:07:12.758Z,97.75
2022-08-25T00:09:24.109Z,97.85
2022-08-25T00:11:29.018Z,97.92
2022-08-25T00:13:31.381Z,97.97
2022-08-25T00:15:35.983Z,98.21
2022-08-25T00:17:38.065Z,98.31
2022-08-25T00:19:40.021Z,98.21
2022-08-25T00:21:43.755Z,98.40
2022-08-25T00:23:46.816Z,98.54
2022-08-25T00:25:49.267Z,98.53
2022-08-25T00:27:51.807Z,98.62
2022-08-25T00:29:55.684Z,98.95
2022-08-25T00:31:58.232Z,98.90
2022-08-25T00:34:01.521Z,98.98
2022-08-25T00:36:05.229Z,99.12
2022-08-25T00:38:10.272Z,99.25
2022-08-25T00:40:18.618Z,99.34
2022-08-25T00:42:21.239Z,99.55
2022-08-25T00:44:26.655Z,99.52
2022-08-25T00:46:38.289Z,99.57
2022-08-25T00:48:43.805Z,99.68
2022-08-25T00:50:45.697Z,99.75
2022-08-25T00:52:52.655Z,100.00
2022-08-25T00:55:29.662Z,100.00
2022-08-25T00:57:36.540Z,100.00
2022-08-25T00:59:39.231Z,100.00
2022-08-25T01:01:43.415Z,100.00
2022-08-25T01:03:45.490Z,100.00
2022-08-25T01:05:48.823Z,100.00
2022-08-25T01:07:52.722Z,100.00
2022-08-25T01:10:01.366Z,100.00
2022-08-25T01:12:03.677Z,99.92
2022-08-25T01:14:08.663Z,100.00
2022-08-25T01:16:11.693Z,100.00
2022-08-25T01:18:16.032Z,100.00
2022-08-25T01:20:20.276Z,100.00
2022-08-25T01:22:22.379Z,100.00
2022-08-25T01:24:45.307Z,99.86
2022-08-25T01:26:47.243Z,99.85
2022-08-25T01:29:10.451Z,99.95
2022-08-25T01:31:23.537Z,99.85
2022-08-25T01:33:28.356Z,99.85
2022-08-25T01:35:31.354Z,99.93
2022-08-25T01:37:35.749Z,99.77
2022-08-25T01:39:37.680Z,99.75
2022-08-25T01:41:59.900Z,99.79
2022-08-25T01:44:06.089Z,99.87
2022-08-25T01:46:33.160Z,99.88
2022-08-25T01:48:37.112Z,99.92
2022-08-25T01:50:41.933Z,99.81
2022-08-25T01:53:09.274Z,99.85
2022-08-25T01:55:11.309Z,99.90
2022-08-25T01:57:15.420Z,99.76
2022-08-25T01:59:24.317Z,99.69
2022-08-25T02:01:28.044Z,99.59
2022-08-25T02:03:30.218Z,99.61
2022-08-25T02:05:35.453Z,99.46
2022-08-25T02:07:38.417Z,99.42
2022-08-25T02:09:44.448Z,99.44
2022-08-25T02:11:47.256Z,99.36
2022-08-25T02:13:49.279Z,99.41
2022-08-25T02:15:54.567Z,99.53
2022-08-25T02:17:57.437Z,99.49
2022-08-25T02:19:59.702Z,99.58
2022-08-25T02:22:02.403Z,99.73
2022-08-25T02:24:06.643Z,99.74
2022-08-25T02:26:10.054Z,99.72
2022-08-25T02:28:12.115Z,99.92
2022-08-25T02:30:15.627Z,99.81
2022-08-25T02:32:17.513Z,99.84
2022-08-25T02:34:19.558Z,99.96
2022-08-25T02:36:24.556Z,99.95
2022-08-25T02:38:34.065Z,100.00
2022-08-25T02:40:38.224Z,100.00
2022-08-25T02:42:42.677Z,100.00
2022-08-25T02:44:44.791Z,100.00
2022-08-25T02:46:48.668Z,100.00
2022-08-25T02:48:53.502Z,100.00
2022-08-25T02:50:55.684Z,100.00
2022-08-25T02:52:57.646Z,100.00
2022-08-25T02:54:59.585Z,100.00
2022-08-25T02:57:01.660Z,100.00
2022-08-25T02:59:04.321Z,100.00
2022-08-25T03:01:12.091Z,100.00
2022-08-25T03:03:14.542Z,100.00
2022-08-25T03:05:19.820Z,100.00
2022-08-25T03:07:22.256Z,100.00
2022-08-25T03:09:32.202Z,100.00
2022-08-25T03:11:38.524Z,100.00
2022-08-25T03:13:42.495Z,100.00
2022-08-25T03:15:46.421Z,100.00
2022-08-25T03:17:51.846Z,100.00
2022-08-25T03:19:54.849Z,100.00
2022-08-25T03:21:59.723Z,100.00
2022-08-25T03:24:01.865Z,100.00
2022-08-25T03:26:23.174Z,100.00
2022-08-25T03:28:30.095Z,100.00
2022-08-25T03:30:35.058Z,100.00
2022-08-25T03:32:37.610Z,100.00
2022-08-25T03:34:39.699Z,100.00
2022-08-25T03:36:45.207Z,100.00
2022-08-25T03:38:47.141Z,100.00
2022-08-25T03:40:51.774Z,100.00
2022-08-25T03:42:55.654Z,100.00
2022-08-25T03:44:57.575Z,100.00
2022-08-25T03:46:59.515Z,100.00
2022-08-25T03:49:06.975Z,100.00
2022-08-25T03:51:08.959Z,100.00
2022-08-25T03:53:10.920Z,100.00
2022-08-25T03:55:15.118Z,100.00
2022-08-25T03:57:17.258Z,100.00
2022-08-25T03:59:20.166Z,100.00
2022-08-25T04:01:22.631Z,100.00
2022-08-25T04:03:26.919Z,100.00
2022-08-25T04:05:38.764Z,100.00
2022-08-25T04:07:40.852Z,100.00
2022-08-25T04:09:44.920Z,100.00
2022-08-25T04:11:48.963Z,100.00
2022-08-25T04:13:59.315Z,100.00
2022-08-25T04:16:01.275Z,100.00
2022-08-25T04:18:04.499Z,100.00
2022-08-25T04:20:09.609Z,100.00
2022-08-25T04:22:11.659Z,100.00
2022-08-25T04:24:16.421Z,100.00
2022-08-25T04:26:43.367Z,100.00
2022-08-25T04:28:47.235Z,100.00
2022-08-25T04:30:52.032Z,100.00
2022-08-25T04:32:54.197Z,100.00
2022-08-25T04:34:57.166Z,100.00
2022-08-25T04:37:01.884Z,100.00
2022-08-25T04:39:04.065Z,100.00
2022-08-25T04:41:10.958Z,100.00
2022-08-25T04:43:15.629Z,100.00
2022-08-25T04:45:17.676Z,100.00
2022-08-25T04:47:23.914Z,100.00
2022-08-25T04:49:27.186Z,99.46
2022-08-25T04:51:41.226Z,99.09
2022-08-25T04:53:43.850Z,98.40
2022-08-25T04:55:48.395Z,97.92
2022-08-25T04:57:51.309Z,97.66
2022-08-25T04:59:58.295Z,97.48
2022-08-25T05:02:03.453Z,96.26
2022-08-25T05:04:14.473Z,95.27
2022-08-25T05:06:17.725Z,94.58
2022-08-25T05:08:19.675Z,93.67
2022-08-25T05:10:22.828Z,92.46
2022-08-25T05:12:24.926Z,92.06
2022-08-25T05:14:27.920Z,90.90
2022-08-25T05:16:31.822Z,89.31
2022-08-25T05:18:36.105Z,88.98
2022-08-25T05:20:38.475Z,87.89
2022-08-25T05:22:40.470Z,87.15
2022-08-25T05:24:42.446Z,86.64
2022-08-25T05:26:44.594Z,85.17
2022-08-25T05:28:47.459Z,85.46
2022-08-25T05:30:52.185Z,86.01
2022-08-25T05:32:54.468Z,86.53
2022-08-25T05:34:56.610Z,86.00
2022-08-25T05:37:00.365Z,86.38
2022-08-25T05:39:02.366Z,86.58
2022-08-25T05:41:06.865Z,85.78
2022-08-25T05:43:08.956Z,84.56
2022-08-25T05:45:16.710Z,84.42
2022-08-25T05:47:23.931Z,83.37
2022-08-25T05:49:25.864Z,82.26
2022-08-25T05:51:29.177Z,82.08
2022-08-25T05:53:35.522Z,80.16
2022-08-25T05:55:38.396Z,80.27
2022-08-25T05:57:41.441Z,80.30
2022-08-25T05:59:43.538Z,80.00
2022-08-25T06:02:03.982Z,81.22
2022-08-25T06:04:06.729Z,81.14
2022-08-25T06:06:16.280Z,81.28
2022-08-25T06:08:18.203Z,80.49
2022-08-25T06:10:29.461Z,80.44
2022-08-25T06:12:36.252Z,80.89
2022-08-25T06:14:38.343Z,80.58
2022-08-25T06:16:41.252Z,78.11
2022-08-25T06:18:44.205Z,79.93
2022-08-25T06:20:46.110Z,79.29
2022-08-25T06:22:55.501Z,78.51
2022-08-25T06:25:05.875Z,78.80
2022-08-25T06:27:07.905Z,79.81
2022-08-25T06:29:10.906Z,79.30
2022-08-25T06:31:12.987Z,78.71
2022-08-25T06:33:16.270Z,78.20
2022-08-25T06:35:20.434Z,78.66
2022-08-25T06:37:25.143Z,78.91
2022-08-25T06:39:27.589Z,78.15
2022-08-25T06:41:37.100Z,77.51
2022-08-25T06:43:45.055Z,75.94
2022-08-25T06:45:51.346Z,76.46
2022-08-25T06:47:54.865Z,75.15
2022-08-25T06:49:56.921Z,73.08
2022-08-25T06:51:59.101Z,72.47
2022-08-25T06:54:01.025Z,71.56
2022-08-25T06:56:06.635Z,71.60
2022-08-25T06:58:14.000Z,69.17
2022-08-25T07:00:17.794Z,70.90
2022-08-25T07:02:23.899Z,67.20
2022-08-25T07:04:27.090Z,66.36
2022-08-25T07:06:33.059Z,68.23
2022-08-25T07:08:36.182Z,66.68
2022-08-25T07:10:39.339Z,66.36
2022-08-25T07:12:41.617Z,66.38
2022-08-25T07:14:58.155Z,66.52
2022-08-25T07:17:10.598Z,66.74
2022-08-25T07:19:21.047Z,67.04
2022-08-25T07:21:25.346Z,66.62
2022-08-25T07:23:30.817Z,66.16
2022-08-25T07:25:35.810Z,66.79
2022-08-25T07:27:41.264Z,65.83
2022-08-25T07:29:44.770Z,66.23
2022-08-25T07:31:47.347Z,65.92
2022-08-25T07:34:10.073Z,65.85
2022-08-25T07:36:20.827Z,65.30
2022-08-25T07:38:25.697Z,66.64
2022-08-25T07:40:32.062Z,66.76
2022-08-25T07:42:36.198Z,66.16
2022-08-25T07:44:40.261Z,67.39
2022-08-25T07:46:45.633Z,68.04
2022-08-25T07:48:53.334Z,66.41
2022-08-25T07:50:56.565Z,67.32
2022-08-25T07:52:59.597Z,66.56
2022-08-25T07:55:02.442Z,66.10
2022-08-25T07:57:06.193Z,65.20
2022-08-25T07:59:13.964Z,63.82
2022-08-25T08:01:25.846Z,65.54
2022-08-25T08:03:45.177Z,64.80
2022-08-25T08:05:52.476Z,63.20
2022-08-25T08:07:55.396Z,61.98
2022-08-25T08:10:25.710Z,64.57
2022-08-25T08:12:20.260Z,62.89
2022-08-25T08:14:25.471Z,64.38
2022-08-25T08:16:29.983Z,66.96
2022-08-25T08:18:43.547Z,68.47
2022-08-25T08:20:48.588Z,69.89
2022-08-25T08:22:50.738Z,70.38
2022-08-25T08:24:54.450Z,67.88
2022-08-25T08:26:59.388Z,66.62
2022-08-25T08:29:02.007Z,67.76
2022-08-25T08:31:04.866Z,67.92
2022-08-25T08:33:11.185Z,68.13
2022-08-25T08:35:15.557Z,68.35
2022-08-25T08:37:17.545Z,68.53
2022-08-25T08:39:19.637Z,68.98
2022-08-25T08:42:10.864Z,64.44
2022-08-25T08:44:35.417Z,64.96
2022-08-25T08:47:17.425Z,66.87
2022-08-25T08:49:38.071Z,64.96
2022-08-25T08:51:56.571Z,64.37
2022-08-25T08:54:15.611Z,63.72
2022-08-25T08:56:30.743Z,60.37
2022-08-25T08:58:40.234Z,60.85
2022-08-25T09:00:52.148Z,61.29
2022-08-25T09:03:06.209Z,62.23
2022-08-25T09:05:17.061Z,59.27
2022-08-25T09:07:28.262Z,60.49
2022-08-25T09:09:35.749Z,60.13
2022-08-25T09:11:52.253Z,60.38
2022-08-25T09:14:04.387Z,60.71
2022-08-25T09:16:36.184Z,56.70
2022-08-25T09:18:41.070Z,58.10
2022-08-25T09:21:17.769Z,57.01
2022-08-25T09:23:41.799Z,58.49
2022-08-25T09:25:54.097Z,60.44
2022-08-25T09:28:05.343Z,59.72
2022-08-25T09:30:11.486Z,58.17
2022-08-25T09:32:15.193Z,57.58
2022-08-25T09:34:32.133Z,58.99
2022-08-25T09:36:37.401Z,59.53
2022-08-25T09:38:40.467Z,56.80
2022-08-25T09:40:54.571Z,55.50
2022-08-25T09:43:00.483Z,57.57
2022-08-25T09:45:05.218Z,58.31
2022-08-25T09:47:22.372Z,57.97
2022-08-25T09:49:41.413Z,60.30
2022-08-25T09:51:44.485Z,61.14
2022-08-25T09:53:52.618Z,58.06
2022-08-25T09:56:04.699Z,58.66
2022-08-25T09:58:22.252Z,57.76
2022-08-25T10:00:26.567Z,60.68
2022-08-25T10:02:36.466Z,59.45
2022-08-25T10:04:41.656Z,58.11
2022-08-25T10:06:47.601Z,57.19
2022-08-25T10:08:49.578Z,54.15
2022-08-25T10:10:57.865Z,53.75
2022-08-25T10:13:03.663Z,56.92
2022-08-25T10:15:29.466Z,56.33
2022-08-25T10:17:33.760Z,55.97
2022-08-25T10:19:35.731Z,54.37
2022-08-25T10:21:42.094Z,57.19
2022-08-25T10:23:56.090Z,57.29
2022-08-25T10:26:04.565Z,57.53
2022-08-25T10:28:27.966Z,57.22
2022-08-25T10:31:09.653Z,52.05
2022-08-25T10:33:36.454Z,50.69
2022-08-25T10:35:59.090Z,50.79
2022-08-25T10:38:09.595Z,51.11
2022-08-25T10:40:23.691Z,47.45
2022-08-25T10:42:39.486Z,49.69
2022-08-25T10:45:19.512Z,48.83
2022-08-25T10:47:50.616Z,48.45
2022-08-25T10:50:02.721Z,49.64
2022-08-25T10:52:12.843Z,49.74
2022-08-25T10:54:28.221Z,50.62
2022-08-25T10:56:37.025Z,48.22
2022-08-25T10:59:00.107Z,50.03
2022-08-25T11:01:28.898Z,39.17
2022-08-25T11:03:41.361Z,32.97
2022-08-25T11:06:04.772Z,32.50
2022-08-25T11:08:34.147Z,30.64
2022-08-25T11:10:53.308Z,34.03
2022-08-25T11:13:04.431Z,32.47
2022-08-25T11:15:18.207Z,32.74
2022-08-25T11:17:27.660Z,32.59
2022-08-25T11:19:38.146Z,33.53
2022-08-25T11:21:45.012Z,33.06
2022-08-25T11:23:53.812Z,32.23
2022-08-25T11:26:11.359Z,33.14
2022-08-25T11:28:22.273Z,30.64
2022-08-25T11:30:26.014Z,31.46
2022-08-25T11:32:33.506Z,29.52
2022-08-25T11:34:43.027Z,29.71
2022-08-25T11:37:00.075Z,29.70
2022-08-25T11:39:14.279Z,29.96
2022-08-25T11:41:36.149Z,29.88
2022-08-25T11:44:02.631Z,29.54
2022-08-25T11:46:19.732Z,28.84
2022-08-25T11:48:40.310Z,30.70
2022-08-25T11:50:59.894Z,30.79
2022-08-25T11:53:28.895Z,28.76
2022-08-25T11:55:39.044Z,27.97
2022-08-25T11:57:44.967Z,28.18
2022-08-25T11:59:49.920Z,28.24
2022-08-25T12:01:57.556Z,28.86
2022-08-25T12:04:31.904Z,28.70
2022-08-25T12:06:36.950Z,29.00
2022-08-25T12:09:00.057Z,30.65
2022-08-25T12:11:11.246Z,29.16
2022-08-25T12:13:33.797Z,27.64
2022-08-25T12:15:44.507Z,28.72
2022-08-25T12:18:10.388Z,28.22
2022-08-25T12:20:13.298Z,29.33
2022-08-25T12:22:16.032Z,29.14
2022-08-25T12:24:48.115Z,29.82
2022-08-25T12:27:06.761Z,28.50
2022-08-25T12:29:30.826Z,29.69
2022-08-25T12:31:51.248Z,30.10
2022-08-25T12:34:19.648Z,29.25
2022-08-25T12:36:34.694Z,29.26
2022-08-25T12:38:51.938Z,27.92
2022-08-25T12:41:22.297Z,28.35
2022-08-25T12:43:37.869Z,27.73
2022-08-25T12:45:46.577Z,28.37
2022-08-25T12:47:50.198Z,27.46
2022-08-25T12:49:52.429Z,26.42
2022-08-25T12:52:00.869Z,26.98
2022-08-25T12:54:25.826Z,28.19
2022-08-25T12:56:39.139Z,28.11
2022-08-25T12:59:03.661Z,28.96
2022-08-25T13:01:35.235Z,29.21
2022-08-25T13:04:09.396Z,29.25
2022-08-25T13:06:32.085Z,28.80
2022-08-25T13:09:28.780Z,29.55
2022-08-25T13:11:43.401Z,30.25
2022-08-25T13:14:29.055Z,28.98
2022-08-25T13:16:33.730Z,29.51
2022-08-25T13:18:39.800Z,29.56
2022-08-25T13:20:43.998Z,29.14
2022-08-25T13:22:56.676Z,28.44
2022-08-25T13:25:00.753Z,28.57
2022-08-25T13:27:06.251Z,28.06
2022-08-25T13:29:09.287Z,29.37
2022-08-25T13:31:22.419Z,29.18
2022-08-25T13:33:25.280Z,29.22
2022-08-25T13:35:30.968Z,29.31
2022-08-25T13:37:35.564Z,27.99
2022-08-25T13:39:55.261Z,28.44
2022-08-25T13:41:58.533Z,29.04
2022-08-25T13:44:06.305Z,28.51
2022-08-25T13:46:19.603Z,28.44
2022-08-25T13:48:40.183Z,29.17
2022-08-25T13:50:52.911Z,29.16
2022-08-25T13:52:58.494Z,28.81
2022-08-25T13:55:08.307Z,29.53
2022-08-25T13:57:24.972Z,29.52
2022-08-25T13:59:35.442Z,28.88
2022-08-25T14:01:51.130Z,30.27
2022-08-25T14:03:56.757Z,28.74
2022-08-25T14:06:15.571Z,28.58
2022-08-25T14:08:33.627Z,28.53
2022-08-25T14:10:40.275Z,28.49
2022-08-25T14:12:46.521Z,28.77
2022-08-25T14:14:59.219Z,28.99
2022-08-25T14:17:28.752Z,29.13
2022-08-25T14:19:35.664Z,28.77
2022-08-25T14:21:40.816Z,28.40
2022-08-25T14:23:44.155Z,27.18
2022-08-25T14:25:47.427Z,29.04
2022-08-25T14:28:09.113Z,29.31
2022-08-25T14:30:13.444Z,27.58
2022-08-25T14:32:17.170Z,27.42
2022-08-25T14:34:23.994Z,27.90
2022-08-25T14:36:29.972Z,27.50
2022-08-25T14:38:34.172Z,27.47
2022-08-25T14:40:36.293Z,27.63
2022-08-25T14:42:46.446Z,27.25
2022-08-25T14:44:50.936Z,28.11
2022-08-25T14:46:56.848Z,28.15
2022-08-25T14:49:04.668Z,28.71
2022-08-25T14:51:07.464Z,28.44
2022-08-25T14:53:11.347Z,28.79
2022-08-25T14:55:17.341Z,28.46
2022-08-25T14:57:33.352Z,27.17
2022-08-25T14:59:35.300Z,27.48
2022-08-25T15:01:37.533Z,27.15
2022-08-25T15:03:43.410Z,28.01
2022-08-25T15:05:49.304Z,28.00
2022-08-25T15:08:13.176Z,28.04
2022-08-25T15:10:15.230Z,29.23
2022-08-25T15:12:26.049Z,28.34
2022-08-25T15:14:41.160Z,29.66
2022-08-25T15:16:46.961Z,28.83
2022-08-25T15:18:57.007Z,28.11
2022-08-25T15:20:58.970Z,28.19
2022-08-25T15:23:01.717Z,28.17
2022-08-25T15:25:04.257Z,28.20
2022-08-25T15:27:12.489Z,27.69
2022-08-25T15:29:14.538Z,27.82
2022-08-25T15:31:20.606Z,28.29
2022-08-25T15:33:23.183Z,28.72
2022-08-25T15:35:27.689Z,28.63
2022-08-25T15:37:31.994Z,29.15
2022-08-25T15:39:35.495Z,28.90
2022-08-25T15:41:38.536Z,29.72
2022-08-25T15:43:40.644Z,29.71
2022-08-25T15:45:42.940Z,29.59
2022-08-25T15:47:45.252Z,29.36
2022-08-25T15:49:47.475Z,28.73
2022-08-25T15:51:49.472Z,28.64
2022-08-25T15:53:53.106Z,28.06
2022-08-25T15:56:04.663Z,28.51
2022-08-25T15:58:08.918Z,28.28
2022-08-25T16:00:13.716Z,28.24
2022-08-25T16:02:19.080Z,28.77
2022-08-25T16:04:26.797Z,28.52
2022-08-25T16:06:28.688Z,27.97
2022-08-25T16:08:30.868Z,28.42
2022-08-25T16:10:39.428Z,28.78
2022-08-25T16:12:42.703Z,29.76
2022-08-25T16:14:46.137Z,28.94
2022-08-25T16:16:49.117Z,30.16
2022-08-25T16:18:51.527Z,29.38
2022-08-25T16:20:55.761Z,30.07
2022-08-25T16:23:00.831Z,28.83
2022-08-25T16:25:03.500Z,30.96
2022-08-25T16:27:11.069Z,29.77
2022-08-25T16:29:16.666Z,29.80
2022-08-25T16:31:19.551Z,29.84
2022-08-25T16:33:21.895Z,30.15
2022-08-25T16:35:24.068Z,30.40
2022-08-25T16:37:26.508Z,30.07
2022-08-25T16:39:28.982Z,30.58
2022-08-25T16:41:35.751Z,29.53
2022-08-25T16:43:38.535Z,29.81
2022-08-25T16:45:43.560Z,30.20
2022-08-25T16:47:45.720Z,30.33
2022-08-25T16:49:48.418Z,30.79
2022-08-25T16:51:57.357Z,30.77
2022-08-25T16:54:22.120Z,31.41
2022-08-25T16:56:27.869Z,31.50
2022-08-25T16:58:30.101Z,31.24
2022-08-25T17:00:33.439Z,31.16
2022-08-25T17:02:35.614Z,31.47
2022-08-25T17:04:37.635Z,31.62
2022-08-25T17:06:49.350Z,32.10
2022-08-25T17:08:53.560Z,32.89
2022-08-25T17:11:16.941Z,33.03
2022-08-25T17:13:19.026Z,32.75
2022-08-25T17:15:24.073Z,33.04
2022-08-25T17:17:27.038Z,34.02
2022-08-25T17:19:29.530Z,33.91
2022-08-25T17:21:37.947Z,33.77
2022-08-25T17:23:44.626Z,34.51
2022-08-25T17:25:46.622Z,34.68
2022-08-25T17:27:54.471Z,34.88
2022-08-25T17:29:56.406Z,34.37
2022-08-25T17:32:00.613Z,34.09
2022-08-25T17:34:02.668Z,35.96
2022-08-25T17:36:07.292Z,35.36
2022-08-25T17:38:09.705Z,35.26
2022-08-25T17:40:12.594Z,34.89
2022-08-25T17:42:15.921Z,35.58
2022-08-25T17:44:18.028Z,36.42
2022-08-25T17:46:20.150Z,35.92
2022-08-25T17:48:24.914Z,36.45
2022-08-25T17:50:28.319Z,37.30
2022-08-25T17:52:30.812Z,37.12
2022-08-25T17:54:33.758Z,36.98
2022-08-25T17:56:35.734Z,38.21
2022-08-25T17:58:38.167Z,38.71
2022-08-25T18:00:44.084Z,38.20
2022-08-25T18:02:47.169Z,37.39
2022-08-25T18:04:49.421Z,38.29
2022-08-25T18:06:52.531Z,38.85
2022-08-25T18:09:01.885Z,40.98
2022-08-25T18:11:06.612Z,38.58
2022-08-25T18:13:12.418Z,41.04
2022-08-25T18:15:14.635Z,39.15
2022-08-25T18:17:21.860Z,42.19
2022-08-25T18:19:24.977Z,43.83
2022-08-25T18:21:30.537Z,47.06
2022-08-25T18:23:32.889Z,42.85
2022-08-25T18:25:34.883Z,44.54
2022-08-25T18:27:37.999Z,42.22
2022-08-25T18:29:41.595Z,43.26
2022-08-25T18:31:47.357Z,43.46
2022-08-25T18:33:50.861Z,43.40
2022-08-25T18:35:57.417Z,49.30
2022-08-25T18:38:25.816Z,46.99
2022-08-25T18:40:29.542Z,45.86
2022-08-25T18:42:31.634Z,54.30
2022-08-25T18:44:35.152Z,44.31
2022-08-25T18:46:42.375Z,52.87
2022-08-25T18:48:46.234Z,47.49
2022-08-25T18:50:54.513Z,48.18
2022-08-25T18:52:56.787Z,45.89
2022-08-25T18:54:59.731Z,46.23
2022-08-25T18:57:02.956Z,54.22
2022-08-25T18:59:05.112Z,51.21
2022-08-25T19:01:08.729Z,45.49
2022-08-25T19:03:16.247Z,46.16
2022-08-25T19:05:23.260Z,54.59
2022-08-25T19:07:25.741Z,55.19
2022-08-25T19:09:28.242Z,50.83
2022-08-25T19:11:30.636Z,56.44
2022-08-25T19:13:34.601Z,56.57
2022-08-25T19:15:43.663Z,55.33
2022-08-25T19:17:45.932Z,55.10
2022-08-25T19:19:48.075Z,50.69
2022-08-25T19:21:50.861Z,52.00
2022-08-25T19:23:54.132Z,55.04
2022-08-25T19:25:56.349Z,58.24
2022-08-25T19:28:03.249Z,56.88
2022-08-25T19:30:09.570Z,53.54
2022-08-25T19:32:12.755Z,59.95
2022-08-25T19:34:28.370Z,62.08
2022-08-25T19:36:35.878Z,59.27
2022-08-25T19:38:39.106Z,58.45
2022-08-25T19:40:43.115Z,55.71
2022-08-25T19:42:54.670Z,51.42
2022-08-25T19:44:56.956Z,53.60
2022-08-25T19:46:59.629Z,50.20
2022-08-25T19:49:15.470Z,52.83
2022-08-25T19:51:19.293Z,50.88
2022-08-25T19:53:24.299Z,53.43
2022-08-25T19:55:26.511Z,53.52
2022-08-25T19:57:42.412Z,51.91
2022-08-25T19:59:48.400Z,52.39
2022-08-25T20:01:53.081Z,53.10
2022-08-25T20:03:55.569Z,50.53
2022-08-25T20:05:59.397Z,51.44
2022-08-25T20:08:04.012Z,56.37
2022-08-25T20:10:14.122Z,53.08
2022-08-25T20:12:18.035Z,58.18
2022-08-25T20:14:21.643Z,55.24
2022-08-25T20:16:24.907Z,57.29
2022-08-25T20:18:28.606Z,55.72
2022-08-25T20:20:34.655Z,56.39
2022-08-25T20:22:38.954Z,56.81
2022-08-25T20:24:51.036Z,56.41
2022-08-25T20:27:05.898Z,54.39
2022-08-25T20:29:09.800Z,55.48
2022-08-25T20:31:13.479Z,53.45
2022-08-25T20:33:22.841Z,55.23
2022-08-25T20:35:31.312Z,55.39
2022-08-25T20:37:34.510Z,58.48
2022-08-25T20:39:40.654Z,58.95
2022-08-25T20:41:42.655Z,57.24
2022-08-25T20:43:56.766Z,58.26
2022-08-25T20:46:01.269Z,55.96
2022-08-25T20:48:03.815Z,56.56
2022-08-25T20:50:09.858Z,56.09
2022-08-25T20:52:15.486Z,53.70
2022-08-25T20:54:17.881Z,54.37
2022-08-25T20:56:20.646Z,53.19
2022-08-25T20:58:22.878Z,54.73
2022-08-25T21:00:25.631Z,53.93
2022-08-25T21:02:29.665Z,53.21
2022-08-25T21:04:32.067Z,53.44
2022-08-25T21:06:37.831Z,54.09
2022-08-25T21:08:46.842Z,54.57
2022-08-25T21:10:49.065Z,53.95
2022-08-25T21:12:53.379Z,54.70
2022-08-25T21:14:55.637Z,55.85
2022-08-25T21:16:58.943Z,56.75
2022-08-25T21:19:00.998Z,56.91
2022-08-25T21:21:14.776Z,57.44
2022-08-25T21:23:17.675Z,55.55
2022-08-25T21:25:21.952Z,55.74
2022-08-25T21:27:25.908Z,56.87
2022-08-25T21:29:34.110Z,57.26
2022-08-25T21:31:36.554Z,58.17
2022-08-25T21:33:40.026Z,57.91
2022-08-25T21:35:42.941Z,60.51
2022-08-25T21:37:44.953Z,64.16
2022-08-25T21:39:48.103Z,67.14
2022-08-25T21:41:51.124Z,65.80
2022-08-25T21:44:02.293Z,64.15
2022-08-25T21:46:05.088Z,67.94
2022-08-25T21:48:11.654Z,68.23
2022-08-25T21:50:14.616Z,69.15
2022-08-25T21:52:16.723Z,67.73
2022-08-25T21:54:20.678Z,68.35
2022-08-25T21:56:26.277Z,71.26
2022-08-25T21:58:28.453Z,71.47
2022-08-25T22:00:34.051Z,71.14
2022-08-25T22:02:36.067Z,72.20
2022-08-25T22:04:39.755Z,74.52
2022-08-25T22:06:41.834Z,74.83
2022-08-25T22:08:46.381Z,75.28
2022-08-25T22:10:48.635Z,73.77
2022-08-25T22:12:57.672Z,75.31
2022-08-25T22:15:06.137Z,76.92
2022-08-25T22:17:12.279Z,76.38
2022-08-25T22:19:19.670Z,70.88
2022-08-25T22:21:22.801Z,73.93
2022-08-25T22:23:28.146Z,76.14
2022-08-25T22:25:30.436Z,76.50
2022-08-25T22:27:33.618Z,76.88
2022-08-25T22:29:35.911Z,77.48
2022-08-25T22:31:38.004Z,77.01
2022-08-25T22:33:40.477Z,76.57
2022-08-25T22:35:43.622Z,76.87
2022-08-25T22:37:47.204Z,78.26
2022-08-25T22:39:49.269Z,78.33
2022-08-25T22:41:57.653Z,78.78
2022-08-25T22:44:04.926Z,78.52
2022-08-25T22:46:12.777Z,78.68
2022-08-25T22:48:14.974Z,78.47
2022-08-25T22:50:18.113Z,78.51
2022-08-25T22:52:20.852Z,78.84
2022-08-25T22:54:34.241Z,77.56
2022-08-25T22:56:37.880Z,77.84
2022-08-25T22:58:40.658Z,78.64
2022-08-25T23:00:42.773Z,78.26
2022-08-25T23:02:53.475Z,79.35
2022-08-25T23:04:57.981Z,80.19
2022-08-25T23:07:05.502Z,79.44
2022-08-25T23:09:09.142Z,79.68
2022-08-25T23:11:12.699Z,79.81
2022-08-25T23:13:23.034Z,80.84
2022-08-25T23:15:36.489Z,82.35
2022-08-25T23:17:38.955Z,82.35
2022-08-25T23:19:40.899Z,82.56
2022-08-25T23:22:02.117Z,82.83
2022-08-25T23:24:06.227Z,83.14
2022-08-25T23:26:09.791Z,82.68
2022-08-25T23:28:12.809Z,82.36
2022-08-25T23:30:15.066Z,82.54
2022-08-25T23:32:28.070Z,82.73
2022-08-25T23:34:30.519Z,82.67
2022-08-25T23:36:35.929Z,82.93
2022-08-25T23:38:41.867Z,83.47
2022-08-25T23:40:48.896Z,83.26
2022-08-25T23:42:52.908Z,83.34
2022-08-25T23:44:56.196Z,83.46
2022-08-25T23:46:58.272Z,84.82
2022-08-25T23:49:00.440Z,84.76
2022-08-25T23:51:03.844Z,84.97
2022-08-25T23:53:05.861Z,84.64
2022-08-25T23:55:09.106Z,85.33
2022-08-25T23:57:11.771Z,85.41
2022-08-25T23:59:16.053Z,85.62
